Pisgah, Maryland
Current Conditions -  °F | °C
As of 10:56 PM on Friday 19 Dec 2014 (Local Time) from KNYG Reporting Station
Clear Clear  
Wind Chill: 24°   Ceiling: Unl
Heat Index: 29°   Visibility: 10mi
Dew Point: 23°   Wind: 5mph
Humidity: 78%   Direction: 280°W
Pressure: 30.29"   Gusts: NA
Location:  38.5236°N, 77.1913°W
Report Text: KNYG 200356Z AUTO 28004KT 10SM CLR M02/M05 A3029 RMK AO2 SLP256 T10171050 $
Loading
Personal Weather Stations






























Interactive Weather Map New forecast layout! Learn more

10-Day Weather Forecast

Advertisements
Track Severe Weather on mobile